sensor_id;sensor_type;location;lat;lon;timestamp;temperature;humidity
40323;DHT22;26030;51.164;17.100;2023-08-17T00:03:53;27.10;63.40
40323;DHT22;26030;51.164;17.100;2023-08-17T00:08:56;27.10;62.90
40323;DHT22;26030;51.164;17.100;2023-08-17T00:13:59;27.10;63.10
40323;DHT22;26030;51.164;17.100;2023-08-17T00:19:02;27.00;62.90
40323;DHT22;26030;51.164;17.100;2023-08-17T00:24:05;27.00;63.10
40323;DHT22;26030;51.164;17.100;2023-08-17T00:29:08;26.70;64.30
40323;DHT22;26030;51.164;17.100;2023-08-17T00:34:11;26.70;64.90
40323;DHT22;26030;51.164;17.100;2023-08-17T00:39:14;26.50;66.00
40323;DHT22;26030;51.164;17.100;2023-08-17T00:44:20;26.40;67.10
40323;DHT22;26030;51.164;17.100;2023-08-17T00:49:23;26.30;67.70
40323;DHT22;26030;51.164;17.100;2023-08-17T00:54:27;26.30;68.20
40323;DHT22;26030;51.164;17.100;2023-08-17T00:59:31;26.20;69.30
40323;DHT22;26030;51.164;17.100;2023-08-17T01:04:39;25.40;69.60
40323;DHT22;26030;51.164;17.100;2023-08-17T01:09:41;25.60;68.40
40323;DHT22;26030;51.164;17.100;2023-08-17T01:14:54;25.70;68.00
40323;DHT22;26030;51.164;17.100;2023-08-17T01:20:04;26.00;66.70
40323;DHT22;26030;51.164;17.100;2023-08-17T01:25:11;26.20;66.10
40323;DHT22;26030;51.164;17.100;2023-08-17T01:30:15;26.20;66.70
40323;DHT22;26030;51.164;17.100;2023-08-17T01:40:48;25.80;67.20
40323;DHT22;26030;51.164;17.100;2023-08-17T01:45:52;25.60;67.10
40323;DHT22;26030;51.164;17.100;2023-08-17T01:50:55;25.50;67.50
40323;DHT22;26030;51.164;17.100;2023-08-17T01:55:58;25.40;67.60
40323;DHT22;26030;51.164;17.100;2023-08-17T02:01:00;25.40;67.50
40323;DHT22;26030;51.164;17.100;2023-08-17T02:06:04;25.40;67.20
40323;DHT22;26030;51.164;17.100;2023-08-17T02:11:07;25.50;66.60
40323;DHT22;26030;51.164;17.100;2023-08-17T02:16:13;25.60;66.40
40323;DHT22;26030;51.164;17.100;2023-08-17T02:21:16;25.60;66.20
40323;DHT22;26030;51.164;17.100;2023-08-17T02:26:19;25.40;66.00
40323;DHT22;26030;51.164;17.100;2023-08-17T02:31:22;25.40;65.90
40323;DHT22;26030;51.164;17.100;2023-08-17T02:36:24;25.40;65.80
40323;DHT22;26030;51.164;17.100;2023-08-17T02:41:27;25.50;65.80
40323;DHT22;26030;51.164;17.100;2023-08-17T02:46:32;25.50;65.80
40323;DHT22;26030;51.164;17.100;2023-08-17T02:51:35;25.50;65.70
40323;DHT22;26030;51.164;17.100;2023-08-17T02:56:38;25.50;65.90
40323;DHT22;26030;51.164;17.100;2023-08-17T03:01:42;25.50;66.00
40323;DHT22;26030;51.164;17.100;2023-08-17T03:06:48;25.50;66.30
40323;DHT22;26030;51.164;17.100;2023-08-17T03:11:51;25.50;66.60
40323;DHT22;26030;51.164;17.100;2023-08-17T03:16:53;25.50;66.50
40323;DHT22;26030;51.164;17.100;2023-08-17T03:21:56;25.50;66.20
40323;DHT22;26030;51.164;17.100;2023-08-17T03:26:59;25.60;65.80
40323;DHT22;26030;51.164;17.100;2023-08-17T03:32:03;25.60;65.70
40323;DHT22;26030;51.164;17.100;2023-08-17T03:37:06;25.60;66.00
40323;DHT22;26030;51.164;17.100;2023-08-17T03:42:10;25.70;65.50
40323;DHT22;26030;51.164;17.100;2023-08-17T03:47:18;25.70;65.40
40323;DHT22;26030;51.164;17.100;2023-08-17T03:52:21;25.80;65.40
40323;DHT22;26030;51.164;17.100;2023-08-17T03:57:24;25.90;64.90
40323;DHT22;26030;51.164;17.100;2023-08-17T04:02:27;26.00;65.10
40323;DHT22;26030;51.164;17.100;2023-08-17T04:07:30;26.00;64.80
40323;DHT22;26030;51.164;17.100;2023-08-17T04:12:33;25.90;65.20
40323;DHT22;26030;51.164;17.100;2023-08-17T04:17:36;26.00;64.90
40323;DHT22;26030;51.164;17.100;2023-08-17T04:22:39;26.00;64.90
40323;DHT22;26030;51.164;17.100;2023-08-17T04:27:42;25.90;64.90
40323;DHT22;26030;51.164;17.100;2023-08-17T04:32:45;26.00;64.90
40323;DHT22;26030;51.164;17.100;2023-08-17T04:37:54;26.00;65.10
40323;DHT22;26030;51.164;17.100;2023-08-17T04:42:57;26.00;65.30
40323;DHT22;26030;51.164;17.100;2023-08-17T04:48:01;26.00;65.10
40323;DHT22;26030;51.164;17.100;2023-08-17T04:53:05;26.00;65.20
40323;DHT22;26030;51.164;17.100;2023-08-17T04:58:09;26.00;65.10
40323;DHT22;26030;51.164;17.100;2023-08-17T05:03:13;26.00;65.30
40323;DHT22;26030;51.164;17.100;2023-08-17T05:08:27;26.10;65.50
40323;DHT22;26030;51.164;17.100;2023-08-17T05:13:30;26.00;66.00
40323;DHT22;26030;51.164;17.100;2023-08-17T05:18:35;26.00;65.90
40323;DHT22;26030;51.164;17.100;2023-08-17T05:23:38;25.90;66.20
40323;DHT22;26030;51.164;17.100;2023-08-17T05:28:41;26.00;66.00
40323;DHT22;26030;51.164;17.100;2023-08-17T05:33:45;26.00;66.30
40323;DHT22;26030;51.164;17.100;2023-08-17T05:38:48;26.00;66.20
40323;DHT22;26030;51.164;17.100;2023-08-17T05:43:51;26.00;65.90
40323;DHT22;26030;51.164;17.100;2023-08-17T05:48:54;26.00;65.50
40323;DHT22;26030;51.164;17.100;2023-08-17T05:53:57;26.00;65.30
40323;DHT22;26030;51.164;17.100;2023-08-17T05:59:00;26.00;65.10
40323;DHT22;26030;51.164;17.100;2023-08-17T06:04:03;26.00;65.10
40323;DHT22;26030;51.164;17.100;2023-08-17T06:09:08;26.00;64.70
40323;DHT22;26030;51.164;17.100;2023-08-17T06:14:12;26.10;64.90
40323;DHT22;26030;51.164;17.100;2023-08-17T06:19:15;26.10;65.10
40323;DHT22;26030;51.164;17.100;2023-08-17T06:24:18;26.10;64.90
40323;DHT22;26030;51.164;17.100;2023-08-17T06:29:26;26.20;64.70
40323;DHT22;26030;51.164;17.100;2023-08-17T06:34:29;26.00;65.60
40323;DHT22;26030;51.164;17.100;2023-08-17T06:39:31;25.90;65.80
40323;DHT22;26030;51.164;17.100;2023-08-17T06:44:34;25.90;66.00
40323;DHT22;26030;51.164;17.100;2023-08-17T06:49:37;25.80;66.70
40323;DHT22;26030;51.164;17.100;2023-08-17T06:54:40;25.70;66.90
40323;DHT22;26030;51.164;17.100;2023-08-17T06:59:43;25.30;68.20
40323;DHT22;26030;51.164;17.100;2023-08-17T07:04:48;24.90;69.00
40323;DHT22;26030;51.164;17.100;2023-08-17T07:09:51;24.90;69.80
40323;DHT22;26030;51.164;17.100;2023-08-17T07:14:54;24.80;69.60
40323;DHT22;26030;51.164;17.100;2023-08-17T07:19:57;24.50;71.00
40323;DHT22;26030;51.164;17.100;2023-08-17T07:25:09;24.40;72.20
40323;DHT22;26030;51.164;17.100;2023-08-17T07:30:13;24.50;71.50
40323;DHT22;26030;51.164;17.100;2023-08-17T07:35:16;24.50;71.30
40323;DHT22;26030;51.164;17.100;2023-08-17T07:40:19;24.50;72.30
40323;DHT22;26030;51.164;17.100;2023-08-17T07:45:22;24.70;72.20
40323;DHT22;26030;51.164;17.100;2023-08-17T07:50:27;24.70;70.80
40323;DHT22;26030;51.164;17.100;2023-08-17T07:55:31;24.50;71.00
40323;DHT22;26030;51.164;17.100;2023-08-17T08:00:33;24.50;71.90
40323;DHT22;26030;51.164;17.100;2023-08-17T08:05:36;24.50;70.80
40323;DHT22;26030;51.164;17.100;2023-08-17T08:10:39;24.70;70.30
40323;DHT22;26030;51.164;17.100;2023-08-17T08:15:42;24.80;70.20
40323;DHT22;26030;51.164;17.100;2023-08-17T08:20:45;24.80;70.50
40323;DHT22;26030;51.164;17.100;2023-08-17T08:25:48;24.90;68.90
40323;DHT22;26030;51.164;17.100;2023-08-17T08:30:51;24.90;68.50
40323;DHT22;26030;51.164;17.100;2023-08-17T08:35:54;25.00;69.00
40323;DHT22;26030;51.164;17.100;2023-08-17T08:40:58;25.10;69.50
40323;DHT22;26030;51.164;17.100;2023-08-17T08:46:01;25.10;68.90
40323;DHT22;26030;51.164;17.100;2023-08-17T08:51:04;25.10;68.10
40323;DHT22;26030;51.164;17.100;2023-08-17T08:56:11;25.40;67.50
40323;DHT22;26030;51.164;17.100;2023-08-17T09:01:15;25.70;67.30
40323;DHT22;26030;51.164;17.100;2023-08-17T09:06:18;26.00;66.70
40323;DHT22;26030;51.164;17.100;2023-08-17T09:11:24;25.90;66.00
40323;DHT22;26030;51.164;17.100;2023-08-17T09:16:27;25.70;67.10
40323;DHT22;26030;51.164;17.100;2023-08-17T09:21:31;25.80;66.70
40323;DHT22;26030;51.164;17.100;2023-08-17T09:26:35;25.80;66.30
40323;DHT22;26030;51.164;17.100;2023-08-17T09:31:38;25.90;66.60
40323;DHT22;26030;51.164;17.100;2023-08-17T09:36:42;25.90;67.20
40323;DHT22;26030;51.164;17.100;2023-08-17T09:41:47;26.00;67.70
40323;DHT22;26030;51.164;17.100;2023-08-17T09:46:50;26.00;67.10
40323;DHT22;26030;51.164;17.100;2023-08-17T09:51:53;26.20;66.80
40323;DHT22;26030;51.164;17.100;2023-08-17T09:56:56;26.50;66.40
40323;DHT22;26030;51.164;17.100;2023-08-17T10:02:00;26.70;65.90
40323;DHT22;26030;51.164;17.100;2023-08-17T10:07:04;26.90;65.60
40323;DHT22;26030;51.164;17.100;2023-08-17T10:12:10;27.00;65.70
40323;DHT22;26030;51.164;17.100;2023-08-17T10:17:15;27.00;65.50
40323;DHT22;26030;51.164;17.100;2023-08-17T10:22:33;27.10;65.50
40323;DHT22;26030;51.164;17.100;2023-08-17T10:27:45;27.20;65.50
40323;DHT22;26030;51.164;17.100;2023-08-17T10:32:49;27.10;65.90
40323;DHT22;26030;51.164;17.100;2023-08-17T10:37:52;27.20;65.50
40323;DHT22;26030;51.164;17.100;2023-08-17T10:42:56;27.30;65.60
40323;DHT22;26030;51.164;17.100;2023-08-17T10:48:45;27.40;65.60
40323;DHT22;26030;51.164;17.100;2023-08-17T10:53:36;27.70;64.40
40323;DHT22;26030;51.164;17.100;2023-08-17T10:58:42;27.70;64.70
40323;DHT22;26030;51.164;17.100;2023-08-17T11:03:45;27.90;64.60
40323;DHT22;26030;51.164;17.100;2023-08-17T11:08:51;27.80;64.10
40323;DHT22;26030;51.164;17.100;2023-08-17T11:13:57;27.80;63.90
40323;DHT22;26030;51.164;17.100;2023-08-17T11:19:00;27.90;63.60
40323;DHT22;26030;51.164;17.100;2023-08-17T11:24:03;27.90;63.60
40323;DHT22;26030;51.164;17.100;2023-08-17T11:29:11;27.90;63.80
40323;DHT22;26030;51.164;17.100;2023-08-17T11:34:14;27.90;63.50
40323;DHT22;26030;51.164;17.100;2023-08-17T11:39:17;28.20;63.50
40323;DHT22;26030;51.164;17.100;2023-08-17T11:44:24;28.20;63.40
40323;DHT22;26030;51.164;17.100;2023-08-17T11:49:30;28.20;63.50
40323;DHT22;26030;51.164;17.100;2023-08-17T11:54:40;28.40;63.20
40323;DHT22;26030;51.164;17.100;2023-08-17T11:59:44;28.40;62.80
40323;DHT22;26030;51.164;17.100;2023-08-17T12:04:46;28.40;63.30
40323;DHT22;26030;51.164;17.100;2023-08-17T12:09:50;28.50;62.30
40323;DHT22;26030;51.164;17.100;2023-08-17T12:14:53;28.70;62.30
40323;DHT22;26030;51.164;17.100;2023-08-17T12:19:58;28.70;62.90
40323;DHT22;26030;51.164;17.100;2023-08-17T12:25:01;28.80;63.40
40323;DHT22;26030;51.164;17.100;2023-08-17T12:30:23;29.00;62.40
40323;DHT22;26030;51.164;17.100;2023-08-17T12:35:30;29.00;62.00
40323;DHT22;26030;51.164;17.100;2023-08-17T12:40:34;29.20;61.60
40323;DHT22;26030;51.164;17.100;2023-08-17T12:45:37;29.20;62.70
40323;DHT22;26030;51.164;17.100;2023-08-17T12:50:39;28.90;62.40
40323;DHT22;26030;51.164;17.100;2023-08-17T12:55:46;28.50;63.60
40323;DHT22;26030;51.164;17.100;2023-08-17T13:00:48;28.50;63.40
40323;DHT22;26030;51.164;17.100;2023-08-17T13:05:56;28.50;63.20
40323;DHT22;26030;51.164;17.100;2023-08-17T13:11:00;28.60;61.80
40323;DHT22;26030;51.164;17.100;2023-08-17T13:16:03;28.60;61.30
40323;DHT22;26030;51.164;17.100;2023-08-17T13:21:08;28.60;61.80
40323;DHT22;26030;51.164;17.100;2023-08-17T13:26:14;28.70;61.90
40323;DHT22;26030;51.164;17.100;2023-08-17T13:31:16;28.30;61.90
40323;DHT22;26030;51.164;17.100;2023-08-17T13:36:26;28.70;61.10
40323;DHT22;26030;51.164;17.100;2023-08-17T13:41:30;28.50;61.20
40323;DHT22;26030;51.164;17.100;2023-08-17T13:46:33;28.40;60.80
40323;DHT22;26030;51.164;17.100;2023-08-17T13:51:36;28.50;60.80
40323;DHT22;26030;51.164;17.100;2023-08-17T13:56:38;28.80;60.70
40323;DHT22;26030;51.164;17.100;2023-08-17T14:01:41;28.90;60.30
40323;DHT22;26030;51.164;17.100;2023-08-17T14:06:44;28.80;61.00
40323;DHT22;26030;51.164;17.100;2023-08-17T14:11:47;28.70;60.70
40323;DHT22;26030;51.164;17.100;2023-08-17T14:16:50;28.60;60.70
40323;DHT22;26030;51.164;17.100;2023-08-17T14:21:53;28.80;60.40
40323;DHT22;26030;51.164;17.100;2023-08-17T14:26:56;28.80;60.40
40323;DHT22;26030;51.164;17.100;2023-08-17T14:32:02;28.90;61.40
40323;DHT22;26030;51.164;17.100;2023-08-17T14:37:05;28.90;62.70
40323;DHT22;26030;51.164;17.100;2023-08-17T14:42:08;28.70;60.80
40323;DHT22;26030;51.164;17.100;2023-08-17T14:47:11;28.80;60.70
40323;DHT22;26030;51.164;17.100;2023-08-17T14:52:15;28.70;60.50
40323;DHT22;26030;51.164;17.100;2023-08-17T14:57:18;28.70;60.80
40323;DHT22;26030;51.164;17.100;2023-08-17T15:02:21;28.90;60.30
40323;DHT22;26030;51.164;17.100;2023-08-17T15:07:23;28.80;61.30
40323;DHT22;26030;51.164;17.100;2023-08-17T15:12:27;28.60;59.20
40323;DHT22;26030;51.164;17.100;2023-08-17T15:17:30;28.30;59.50
40323;DHT22;26030;51.164;17.100;2023-08-17T15:22:33;28.70;61.00
40323;DHT22;26030;51.164;17.100;2023-08-17T15:27:36;28.90;61.60
40323;DHT22;26030;51.164;17.100;2023-08-17T15:32:39;29.10;62.10
40323;DHT22;26030;51.164;17.100;2023-08-17T15:37:41;29.20;61.70
40323;DHT22;26030;51.164;17.100;2023-08-17T15:42:44;28.40;62.00
40323;DHT22;26030;51.164;17.100;2023-08-17T15:47:48;27.60;63.30
40323;DHT22;26030;51.164;17.100;2023-08-17T15:52:51;27.50;63.80
40323;DHT22;26030;51.164;17.100;2023-08-17T15:57:54;27.50;63.90
40323;DHT22;26030;51.164;17.100;2023-08-17T16:02:57;27.30;64.20
40323;DHT22;26030;51.164;17.100;2023-08-17T16:08:01;27.20;64.30
40323;DHT22;26030;51.164;17.100;2023-08-17T16:13:04;26.80;65.60
40323;DHT22;26030;51.164;17.100;2023-08-17T16:18:07;26.60;66.90
40323;DHT22;26030;51.164;17.100;2023-08-17T16:23:10;26.50;67.20
40323;DHT22;26030;51.164;17.100;2023-08-17T16:28:12;26.40;67.30
40323;DHT22;26030;51.164;17.100;2023-08-17T16:33:15;26.40;67.70
40323;DHT22;26030;51.164;17.100;2023-08-17T16:38:20;26.20;68.10
40323;DHT22;26030;51.164;17.100;2023-08-17T16:43:25;26.10;68.40
40323;DHT22;26030;51.164;17.100;2023-08-17T16:48:28;26.10;67.90
40323;DHT22;26030;51.164;17.100;2023-08-17T16:53:31;26.20;68.20
40323;DHT22;26030;51.164;17.100;2023-08-17T16:58:34;26.40;67.50
40323;DHT22;26030;51.164;17.100;2023-08-17T17:03:38;26.40;67.90
40323;DHT22;26030;51.164;17.100;2023-08-17T17:08:44;26.50;67.30
40323;DHT22;26030;51.164;17.100;2023-08-17T17:13:47;26.70;67.10
40323;DHT22;26030;51.164;17.100;2023-08-17T17:18:52;26.80;67.50
40323;DHT22;26030;51.164;17.100;2023-08-17T17:23:55;26.90;67.10
40323;DHT22;26030;51.164;17.100;2023-08-17T17:28:58;26.90;67.30
40323;DHT22;26030;51.164;17.100;2023-08-17T17:34:02;26.80;67.20
40323;DHT22;26030;51.164;17.100;2023-08-17T17:39:07;26.90;67.30
40323;DHT22;26030;51.164;17.100;2023-08-17T17:44:09;26.90;66.70
40323;DHT22;26030;51.164;17.100;2023-08-17T17:49:13;26.90;66.60
40323;DHT22;26030;51.164;17.100;2023-08-17T17:54:16;27.00;66.00
40323;DHT22;26030;51.164;17.100;2023-08-17T17:59:19;26.90;66.00
40323;DHT22;26030;51.164;17.100;2023-08-17T18:04:25;26.80;67.20
40323;DHT22;26030;51.164;17.100;2023-08-17T18:09:29;26.80;66.30
40323;DHT22;26030;51.164;17.100;2023-08-17T18:14:37;26.30;67.90
40323;DHT22;26030;51.164;17.100;2023-08-17T18:19:47;25.90;69.30
40323;DHT22;26030;51.164;17.100;2023-08-17T18:24:50;25.90;70.30
40323;DHT22;26030;51.164;17.100;2023-08-17T18:29:55;26.10;69.90
40323;DHT22;26030;51.164;17.100;2023-08-17T18:34:59;26.20;69.20
40323;DHT22;26030;51.164;17.100;2023-08-17T18:40:06;26.20;69.00
40323;DHT22;26030;51.164;17.100;2023-08-17T18:45:13;26.20;69.20
40323;DHT22;26030;51.164;17.100;2023-08-17T18:50:23;26.10;69.40
40323;DHT22;26030;51.164;17.100;2023-08-17T18:55:29;26.10;69.30
40323;DHT22;26030;51.164;17.100;2023-08-17T19:00:34;26.10;69.30
40323;DHT22;26030;51.164;17.100;2023-08-17T19:05:38;26.20;69.70
40323;DHT22;26030;51.164;17.100;2023-08-17T19:10:46;26.30;69.50
40323;DHT22;26030;51.164;17.100;2023-08-17T19:15:50;26.40;68.80
40323;DHT22;26030;51.164;17.100;2023-08-17T19:20:54;26.40;68.60
40323;DHT22;26030;51.164;17.100;2023-08-17T19:26:01;26.50;68.40
40323;DHT22;26030;51.164;17.100;2023-08-17T19:31:07;26.50;68.80
40323;DHT22;26030;51.164;17.100;2023-08-17T19:36:12;26.50;68.20
40323;DHT22;26030;51.164;17.100;2023-08-17T19:41:16;26.60;68.10
40323;DHT22;26030;51.164;17.100;2023-08-17T19:46:20;26.40;68.50
40323;DHT22;26030;51.164;17.100;2023-08-17T19:51:25;26.30;62.70
40323;DHT22;26030;51.164;17.100;2023-08-17T19:56:31;25.90;61.00
40323;DHT22;26030;51.164;17.100;2023-08-17T20:01:36;25.70;59.90
40323;DHT22;26030;51.164;17.100;2023-08-17T20:06:43;25.40;56.80
40323;DHT22;26030;51.164;17.100;2023-08-17T20:11:53;25.30;59.30
40323;DHT22;26030;51.164;17.100;2023-08-17T20:16:57;25.00;56.10
40323;DHT22;26030;51.164;17.100;2023-08-17T20:22:22;24.90;53.90
40323;DHT22;26030;51.164;17.100;2023-08-17T20:27:27;24.70;52.80
40323;DHT22;26030;51.164;17.100;2023-08-17T20:32:34;24.70;53.00
40323;DHT22;26030;51.164;17.100;2023-08-17T20:37:37;24.50;52.20
40323;DHT22;26030;51.164;17.100;2023-08-17T20:42:41;25.00;54.80
40323;DHT22;26030;51.164;17.100;2023-08-17T20:47:46;25.50;53.50
40323;DHT22;26030;51.164;17.100;2023-08-17T20:52:49;25.90;55.40
40323;DHT22;26030;51.164;17.100;2023-08-17T20:57:53;26.00;55.90
40323;DHT22;26030;51.164;17.100;2023-08-17T21:02:56;26.20;56.60
40323;DHT22;26030;51.164;17.100;2023-08-17T21:07:59;26.10;57.20
40323;DHT22;26030;51.164;17.100;2023-08-17T21:13:04;26.20;57.80
40323;DHT22;26030;51.164;17.100;2023-08-17T21:18:07;26.20;58.50
40323;DHT22;26030;51.164;17.100;2023-08-17T21:23:10;26.20;59.30
40323;DHT22;26030;51.164;17.100;2023-08-17T21:28:13;26.10;60.10
40323;DHT22;26030;51.164;17.100;2023-08-17T21:33:16;26.10;62.20
40323;DHT22;26030;51.164;17.100;2023-08-17T21:38:19;26.30;64.70
40323;DHT22;26030;51.164;17.100;2023-08-17T21:43:22;26.30;65.00
40323;DHT22;26030;51.164;17.100;2023-08-17T21:48:25;26.30;65.50
40323;DHT22;26030;51.164;17.100;2023-08-17T21:53:28;26.30;65.70
40323;DHT22;26030;51.164;17.100;2023-08-17T21:58:31;26.40;66.30
40323;DHT22;26030;51.164;17.100;2023-08-17T22:03:33;26.40;66.00
40323;DHT22;26030;51.164;17.100;2023-08-17T22:08:36;26.40;65.90
40323;DHT22;26030;51.164;17.100;2023-08-17T22:13:39;26.40;66.10
40323;DHT22;26030;51.164;17.100;2023-08-17T22:18:42;26.50;65.80
40323;DHT22;26030;51.164;17.100;2023-08-17T22:23:45;26.40;66.10
40323;DHT22;26030;51.164;17.100;2023-08-17T22:28:48;26.40;66.10
40323;DHT22;26030;51.164;17.100;2023-08-17T22:33:51;26.40;65.90
40323;DHT22;26030;51.164;17.100;2023-08-17T22:38:54;26.40;65.50
40323;DHT22;26030;51.164;17.100;2023-08-17T22:43:57;26.40;66.10
40323;DHT22;26030;51.164;17.100;2023-08-17T22:49:00;26.50;66.10
40323;DHT22;26030;51.164;17.100;2023-08-17T22:54:04;26.50;66.10
40323;DHT22;26030;51.164;17.100;2023-08-17T22:59:10;26.50;66.10
40323;DHT22;26030;51.164;17.100;2023-08-17T23:04:13;26.50;65.90
40323;DHT22;26030;51.164;17.100;2023-08-17T23:09:17;26.50;65.90
40323;DHT22;26030;51.164;17.100;2023-08-17T23:14:20;26.50;65.60
40323;DHT22;26030;51.164;17.100;2023-08-17T23:19:24;26.50;65.30
40323;DHT22;26030;51.164;17.100;2023-08-17T23:24:27;26.40;66.00
40323;DHT22;26030;51.164;17.100;2023-08-17T23:29:31;26.40;65.50
40323;DHT22;26030;51.164;17.100;2023-08-17T23:34:35;26.40;65.60
40323;DHT22;26030;51.164;17.100;2023-08-17T23:39:39;26.40;65.50
40323;DHT22;26030;51.164;17.100;2023-08-17T23:44:42;26.40;65.50
40323;DHT22;26030;51.164;17.100;2023-08-17T23:49:46;26.40;66.30
40323;DHT22;26030;51.164;17.100;2023-08-17T23:54:49;26.40;65.70
40323;DHT22;26030;51.164;17.100;2023-08-17T23:59:54;26.40;65.50
